sensor_id;sensor_type;location;lat;lon;timestamp;temperature;humidity
15967;DHT22;15175;48.154;11.534;2022-09-27T00:00:37;12.90;99.90
15967;DHT22;15175;48.154;11.534;2022-09-27T00:03:05;12.90;99.90
15967;DHT22;15175;48.154;11.534;2022-09-27T00:05:32;12.90;99.90
15967;DHT22;15175;48.154;11.534;2022-09-27T00:08:00;12.90;99.90
15967;DHT22;15175;48.154;11.534;2022-09-27T00:10:27;12.80;99.90
15967;DHT22;15175;48.154;11.534;2022-09-27T00:12:55;12.90;99.90
15967;DHT22;15175;48.154;11.534;2022-09-27T00:15:23;12.80;99.90
15967;DHT22;15175;48.154;11.534;2022-09-27T00:17:50;12.80;99.90
15967;DHT22;15175;48.154;11.534;2022-09-27T00:20:18;12.80;99.90
15967;DHT22;15175;48.154;11.534;2022-09-27T00:22:46;12.80;99.90
15967;DHT22;15175;48.154;11.534;2022-09-27T00:25:14;12.80;99.90
15967;DHT22;15175;48.154;11.534;2022-09-27T00:27:41;12.80;99.90
15967;DHT22;15175;48.154;11.534;2022-09-27T00:30:10;12.80;99.90
15967;DHT22;15175;48.154;11.534;2022-09-27T00:32:38;12.80;99.90
15967;DHT22;15175;48.154;11.534;2022-09-27T00:35:06;12.80;99.90
15967;DHT22;15175;48.154;11.534;2022-09-27T00:37:34;12.80;99.90
15967;DHT22;15175;48.154;11.534;2022-09-27T00:40:01;12.80;99.90
15967;DHT22;15175;48.154;11.534;2022-09-27T00:42:29;12.80;99.90
15967;DHT22;15175;48.154;11.534;2022-09-27T00:45:03;12.90;99.90
15967;DHT22;15175;48.154;11.534;2022-09-27T00:47:36;12.80;99.90
15967;DHT22;15175;48.154;11.534;2022-09-27T00:50:12;12.80;99.90
15967;DHT22;15175;48.154;11.534;2022-09-27T00:52:43;12.80;99.90
15967;DHT22;15175;48.154;11.534;2022-09-27T00:55:14;12.80;99.90
15967;DHT22;15175;48.154;11.534;2022-09-27T00:57:44;12.80;99.90
15967;DHT22;15175;48.154;11.534;2022-09-27T01:00:13;12.70;99.90
15967;DHT22;15175;48.154;11.534;2022-09-27T01:02:43;12.70;99.90
15967;DHT22;15175;48.154;11.534;2022-09-27T01:05:14;12.60;99.90
15967;DHT22;15175;48.154;11.534;2022-09-27T01:07:42;12.60;99.90
15967;DHT22;15175;48.154;11.534;2022-09-27T01:10:10;12.60;99.90
15967;DHT22;15175;48.154;11.534;2022-09-27T01:12:48;12.60;99.90
15967;DHT22;15175;48.154;11.534;2022-09-27T01:15:24;12.60;99.90
15967;DHT22;15175;48.154;11.534;2022-09-27T01:18:01;12.60;99.90
15967;DHT22;15175;48.154;11.534;2022-09-27T01:20:53;12.50;99.90
15967;DHT22;15175;48.154;11.534;2022-09-27T01:23:41;12.50;99.90
15967;DHT22;15175;48.154;11.534;2022-09-27T01:26:12;12.50;99.90
15967;DHT22;15175;48.154;11.534;2022-09-27T01:28:50;12.50;99.90
15967;DHT22;15175;48.154;11.534;2022-09-27T01:31:27;12.40;99.90
15967;DHT22;15175;48.154;11.534;2022-09-27T01:34:02;12.40;99.90
15967;DHT22;15175;48.154;11.534;2022-09-27T01:36:41;12.40;99.90
15967;DHT22;15175;48.154;11.534;2022-09-27T01:39:20;12.30;99.90
15967;DHT22;15175;48.154;11.534;2022-09-27T01:42:20;12.20;99.90
15967;DHT22;15175;48.154;11.534;2022-09-27T01:44:53;12.20;99.90
15967;DHT22;15175;48.154;11.534;2022-09-27T01:47:36;12.20;99.90
15967;DHT22;15175;48.154;11.534;2022-09-27T01:50:29;12.20;99.90
15967;DHT22;15175;48.154;11.534;2022-09-27T01:53:02;12.20;99.90
15967;DHT22;15175;48.154;11.534;2022-09-27T01:55:40;12.20;99.90
15967;DHT22;15175;48.154;11.534;2022-09-27T01:58:41;12.20;99.90
15967;DHT22;15175;48.154;11.534;2022-09-27T02:01:12;12.10;99.90
15967;DHT22;15175;48.154;11.534;2022-09-27T02:03:45;12.10;99.90
15967;DHT22;15175;48.154;11.534;2022-09-27T02:06:35;12.10;99.90
15967;DHT22;15175;48.154;11.534;2022-09-27T02:09:18;12.00;99.90
15967;DHT22;15175;48.154;11.534;2022-09-27T02:12:07;11.90;99.90
15967;DHT22;15175;48.154;11.534;2022-09-27T02:14:40;11.90;99.90
15967;DHT22;15175;48.154;11.534;2022-09-27T02:17:16;11.90;99.90
15967;DHT22;15175;48.154;11.534;2022-09-27T02:19:54;11.80;99.90
15967;DHT22;15175;48.154;11.534;2022-09-27T02:22:35;11.80;99.90
15967;DHT22;15175;48.154;11.534;2022-09-27T02:25:10;11.80;99.90
15967;DHT22;15175;48.154;11.534;2022-09-27T02:27:49;11.90;99.90
15967;DHT22;15175;48.154;11.534;2022-09-27T02:30:23;11.90;99.90
15967;DHT22;15175;48.154;11.534;2022-09-27T02:32:57;11.90;99.90
15967;DHT22;15175;48.154;11.534;2022-09-27T02:35:28;11.90;99.90
15967;DHT22;15175;48.154;11.534;2022-09-27T02:37:57;11.90;99.90
15967;DHT22;15175;48.154;11.534;2022-09-27T02:40:29;12.00;99.90
15967;DHT22;15175;48.154;11.534;2022-09-27T02:42:59;11.90;99.90
15967;DHT22;15175;48.154;11.534;2022-09-27T02:45:33;11.90;99.90
15967;DHT22;15175;48.154;11.534;2022-09-27T02:48:11;11.90;99.90
15967;DHT22;15175;48.154;11.534;2022-09-27T02:50:52;11.80;99.90
15967;DHT22;15175;48.154;11.534;2022-09-27T02:53:40;11.80;99.90
15967;DHT22;15175;48.154;11.534;2022-09-27T02:56:34;11.70;99.90
15967;DHT22;15175;48.154;11.534;2022-09-27T02:59:28;11.70;99.90
15967;DHT22;15175;48.154;11.534;2022-09-27T03:02:33;11.70;99.90
15967;DHT22;15175;48.154;11.534;2022-09-27T03:05:39;11.60;99.90
15967;DHT22;15175;48.154;11.534;2022-09-27T03:08:10;11.60;99.90
15967;DHT22;15175;48.154;11.534;2022-09-27T03:10:38;11.60;99.90
15967;DHT22;15175;48.154;11.534;2022-09-27T03:13:05;11.60;99.90
15967;DHT22;15175;48.154;11.534;2022-09-27T03:15:33;11.60;99.90
15967;DHT22;15175;48.154;11.534;2022-09-27T03:18:00;11.50;99.90
15967;DHT22;15175;48.154;11.534;2022-09-27T03:20:33;11.50;99.90
15967;DHT22;15175;48.154;11.534;2022-09-27T03:23:08;11.40;99.90
15967;DHT22;15175;48.154;11.534;2022-09-27T03:25:36;11.40;99.90
15967;DHT22;15175;48.154;11.534;2022-09-27T03:28:03;11.40;99.90
15967;DHT22;15175;48.154;11.534;2022-09-27T03:30:32;11.40;99.90
15967;DHT22;15175;48.154;11.534;2022-09-27T03:33:00;11.40;99.90
15967;DHT22;15175;48.154;11.534;2022-09-27T03:35:53;11.40;99.90
15967;DHT22;15175;48.154;11.534;2022-09-27T03:38:22;11.30;99.90
15967;DHT22;15175;48.154;11.534;2022-09-27T03:40:49;11.30;99.90
15967;DHT22;15175;48.154;11.534;2022-09-27T03:43:18;11.30;99.90
15967;DHT22;15175;48.154;11.534;2022-09-27T03:45:45;11.30;99.90
15967;DHT22;15175;48.154;11.534;2022-09-27T03:48:12;11.30;99.90
15967;DHT22;15175;48.154;11.534;2022-09-27T03:50:40;11.30;99.90
15967;DHT22;15175;48.154;11.534;2022-09-27T03:53:07;11.30;99.90
15967;DHT22;15175;48.154;11.534;2022-09-27T03:55:36;11.30;99.90
15967;DHT22;15175;48.154;11.534;2022-09-27T03:58:03;11.30;99.90
15967;DHT22;15175;48.154;11.534;2022-09-27T04:00:31;11.40;99.90
15967;DHT22;15175;48.154;11.534;2022-09-27T04:02:59;11.40;99.90
15967;DHT22;15175;48.154;11.534;2022-09-27T04:05:27;11.40;99.90
15967;DHT22;15175;48.154;11.534;2022-09-27T04:08:02;11.40;99.90
15967;DHT22;15175;48.154;11.534;2022-09-27T04:10:32;11.30;99.90
15967;DHT22;15175;48.154;11.534;2022-09-27T04:13:01;11.30;99.90
15967;DHT22;15175;48.154;11.534;2022-09-27T04:15:33;11.30;99.90
15967;DHT22;15175;48.154;11.534;2022-09-27T04:18:18;11.30;99.90
15967;DHT22;15175;48.154;11.534;2022-09-27T04:21:09;11.30;99.90
15967;DHT22;15175;48.154;11.534;2022-09-27T04:23:41;11.40;99.90
15967;DHT22;15175;48.154;11.534;2022-09-27T04:26:13;11.40;99.90
15967;DHT22;15175;48.154;11.534;2022-09-27T04:28:54;11.30;99.90
15967;DHT22;15175;48.154;11.534;2022-09-27T04:31:21;11.40;99.90
15967;DHT22;15175;48.154;11.534;2022-09-27T04:34:21;11.40;99.90
15967;DHT22;15175;48.154;11.534;2022-09-27T04:37:09;11.40;99.90
15967;DHT22;15175;48.154;11.534;2022-09-27T04:39:42;11.50;99.90
15967;DHT22;15175;48.154;11.534;2022-09-27T04:42:09;11.50;99.90
15967;DHT22;15175;48.154;11.534;2022-09-27T04:44:38;11.50;99.90
15967;DHT22;15175;48.154;11.534;2022-09-27T04:47:05;11.50;99.90
15967;DHT22;15175;48.154;11.534;2022-09-27T04:49:32;11.60;99.90
15967;DHT22;15175;48.154;11.534;2022-09-27T04:52:00;11.60;99.90
15967;DHT22;15175;48.154;11.534;2022-09-27T04:54:27;11.50;99.90
15967;DHT22;15175;48.154;11.534;2022-09-27T04:57:11;11.60;99.90
15967;DHT22;15175;48.154;11.534;2022-09-27T04:59:40;11.50;99.90
15967;DHT22;15175;48.154;11.534;2022-09-27T05:02:08;11.60;99.90
15967;DHT22;15175;48.154;11.534;2022-09-27T05:05:02;11.50;99.90
15967;DHT22;15175;48.154;11.534;2022-09-27T05:07:36;11.60;99.90
15967;DHT22;15175;48.154;11.534;2022-09-27T05:10:09;11.60;99.90
15967;DHT22;15175;48.154;11.534;2022-09-27T05:12:37;11.60;99.90
15967;DHT22;15175;48.154;11.534;2022-09-27T05:15:08;11.60;99.90
15967;DHT22;15175;48.154;11.534;2022-09-27T05:18:10;11.60;99.90
15967;DHT22;15175;48.154;11.534;2022-09-27T05:20:56;11.60;99.90
15967;DHT22;15175;48.154;11.534;2022-09-27T05:23:30;11.60;99.90
15967;DHT22;15175;48.154;11.534;2022-09-27T05:26:01;11.60;99.90
15967;DHT22;15175;48.154;11.534;2022-09-27T05:28:28;11.50;99.90
15967;DHT22;15175;48.154;11.534;2022-09-27T05:30:57;11.60;99.90
15967;DHT22;15175;48.154;11.534;2022-09-27T05:33:24;11.60;99.90
15967;DHT22;15175;48.154;11.534;2022-09-27T05:36:12;11.60;99.90
15967;DHT22;15175;48.154;11.534;2022-09-27T05:38:39;11.60;99.90
15967;DHT22;15175;48.154;11.534;2022-09-27T05:41:08;11.60;99.90
15967;DHT22;15175;48.154;11.534;2022-09-27T05:43:35;11.60;99.90
15967;DHT22;15175;48.154;11.534;2022-09-27T05:46:04;11.60;99.90
15967;DHT22;15175;48.154;11.534;2022-09-27T05:48:32;11.50;99.90
15967;DHT22;15175;48.154;11.534;2022-09-27T05:51:04;11.50;99.90
15967;DHT22;15175;48.154;11.534;2022-09-27T05:53:34;11.50;99.90
15967;DHT22;15175;48.154;11.534;2022-09-27T05:56:04;11.50;99.90
15967;DHT22;15175;48.154;11.534;2022-09-27T05:59:06;11.50;99.90
15967;DHT22;15175;48.154;11.534;2022-09-27T06:01:54;11.50;99.90
15967;DHT22;15175;48.154;11.534;2022-09-27T06:04:53;11.50;99.90
15967;DHT22;15175;48.154;11.534;2022-09-27T06:07:30;11.50;99.90
15967;DHT22;15175;48.154;11.534;2022-09-27T06:09:59;11.50;99.90
15967;DHT22;15175;48.154;11.534;2022-09-27T06:12:26;11.40;99.90
15967;DHT22;15175;48.154;11.534;2022-09-27T06:14:53;11.40;99.90
15967;DHT22;15175;48.154;11.534;2022-09-27T06:17:34;11.40;99.90
15967;DHT22;15175;48.154;11.534;2022-09-27T06:20:08;11.40;99.90
15967;DHT22;15175;48.154;11.534;2022-09-27T06:22:36;11.30;99.90
15967;DHT22;15175;48.154;11.534;2022-09-27T06:25:04;11.30;99.90
15967;DHT22;15175;48.154;11.534;2022-09-27T06:27:36;11.30;99.90
15967;DHT22;15175;48.154;11.534;2022-09-27T06:30:07;11.30;99.90
15967;DHT22;15175;48.154;11.534;2022-09-27T06:32:45;11.30;99.90
15967;DHT22;15175;48.154;11.534;2022-09-27T06:35:19;11.20;99.90
15967;DHT22;15175;48.154;11.534;2022-09-27T06:37:46;11.30;99.90
15967;DHT22;15175;48.154;11.534;2022-09-27T06:40:14;11.30;99.90
15967;DHT22;15175;48.154;11.534;2022-09-27T06:43:01;11.30;99.90
15967;DHT22;15175;48.154;11.534;2022-09-27T06:45:54;11.40;99.90
15967;DHT22;15175;48.154;11.534;2022-09-27T06:48:50;11.40;99.90
15967;DHT22;15175;48.154;11.534;2022-09-27T06:51:18;11.60;99.90
15967;DHT22;15175;48.154;11.534;2022-09-27T06:53:47;11.70;99.90
15967;DHT22;15175;48.154;11.534;2022-09-27T06:56:15;11.90;99.90
15967;DHT22;15175;48.154;11.534;2022-09-27T06:58:52;12.00;99.90
15967;DHT22;15175;48.154;11.534;2022-09-27T07:01:43;12.00;99.90
15967;DHT22;15175;48.154;11.534;2022-09-27T07:04:15;12.00;99.90
15967;DHT22;15175;48.154;11.534;2022-09-27T07:07:01;12.20;99.90
15967;DHT22;15175;48.154;11.534;2022-09-27T07:09:39;12.30;99.90
15967;DHT22;15175;48.154;11.534;2022-09-27T07:12:07;12.30;99.90
15967;DHT22;15175;48.154;11.534;2022-09-27T07:14:34;12.30;99.90
15967;DHT22;15175;48.154;11.534;2022-09-27T07:17:03;12.30;99.90
15967;DHT22;15175;48.154;11.534;2022-09-27T07:19:51;12.30;99.90
15967;DHT22;15175;48.154;11.534;2022-09-27T07:22:19;12.20;99.90
15967;DHT22;15175;48.154;11.534;2022-09-27T07:24:52;12.30;99.90
15967;DHT22;15175;48.154;11.534;2022-09-27T07:27:24;12.20;99.90
15967;DHT22;15175;48.154;11.534;2022-09-27T07:29:52;12.20;99.90
15967;DHT22;15175;48.154;11.534;2022-09-27T07:32:19;12.20;99.90
15967;DHT22;15175;48.154;11.534;2022-09-27T07:34:47;12.20;99.90
15967;DHT22;15175;48.154;11.534;2022-09-27T07:37:16;12.20;99.90
15967;DHT22;15175;48.154;11.534;2022-09-27T07:39:44;12.30;99.90
15967;DHT22;15175;48.154;11.534;2022-09-27T07:42:12;12.30;99.90
15967;DHT22;15175;48.154;11.534;2022-09-27T07:44:43;12.40;99.90
15967;DHT22;15175;48.154;11.534;2022-09-27T07:47:30;12.40;99.90
15967;DHT22;15175;48.154;11.534;2022-09-27T07:50:18;12.40;99.90
15967;DHT22;15175;48.154;11.534;2022-09-27T07:52:53;12.50;99.90
15967;DHT22;15175;48.154;11.534;2022-09-27T07:55:49;12.50;99.90
15967;DHT22;15175;48.154;11.534;2022-09-27T07:58:19;12.60;99.90
15967;DHT22;15175;48.154;11.534;2022-09-27T08:00:48;12.70;99.90
15967;DHT22;15175;48.154;11.534;2022-09-27T08:03:17;12.90;99.90
15967;DHT22;15175;48.154;11.534;2022-09-27T08:05:46;13.20;99.90
15967;DHT22;15175;48.154;11.534;2022-09-27T08:08:16;13.40;99.90
15967;DHT22;15175;48.154;11.534;2022-09-27T08:10:45;13.40;99.90
15967;DHT22;15175;48.154;11.534;2022-09-27T08:13:13;13.40;99.90
15967;DHT22;15175;48.154;11.534;2022-09-27T08:15:45;13.30;99.90
15967;DHT22;15175;48.154;11.534;2022-09-27T08:18:13;13.20;99.90
15967;DHT22;15175;48.154;11.534;2022-09-27T08:20:57;13.00;99.90
15967;DHT22;15175;48.154;11.534;2022-09-27T08:23:29;12.80;99.90
15967;DHT22;15175;48.154;11.534;2022-09-27T08:26:13;12.60;99.90
15967;DHT22;15175;48.154;11.534;2022-09-27T08:28:52;12.50;99.90
15967;DHT22;15175;48.154;11.534;2022-09-27T08:31:23;12.30;99.90
15967;DHT22;15175;48.154;11.534;2022-09-27T08:33:53;12.20;99.90
15967;DHT22;15175;48.154;11.534;2022-09-27T08:36:21;12.10;99.90
15967;DHT22;15175;48.154;11.534;2022-09-27T08:38:51;12.10;99.90
15967;DHT22;15175;48.154;11.534;2022-09-27T08:41:28;12.00;99.90
15967;DHT22;15175;48.154;11.534;2022-09-27T08:44:09;11.90;99.90
15967;DHT22;15175;48.154;11.534;2022-09-27T08:46:52;11.90;99.90
15967;DHT22;15175;48.154;11.534;2022-09-27T08:49:29;11.90;99.90
15967;DHT22;15175;48.154;11.534;2022-09-27T08:52:00;11.90;99.90
15967;DHT22;15175;48.154;11.534;2022-09-27T08:54:31;12.10;99.90
15967;DHT22;15175;48.154;11.534;2022-09-27T08:57:02;12.20;99.90
15967;DHT22;15175;48.154;11.534;2022-09-27T08:59:34;12.30;99.90
15967;DHT22;15175;48.154;11.534;2022-09-27T09:02:05;12.50;99.90
15967;DHT22;15175;48.154;11.534;2022-09-27T09:04:43;12.60;99.90
15967;DHT22;15175;48.154;11.534;2022-09-27T09:07:28;12.60;99.90
15967;DHT22;15175;48.154;11.534;2022-09-27T09:10:15;12.60;99.90
15967;DHT22;15175;48.154;11.534;2022-09-27T09:13:11;12.50;99.90
15967;DHT22;15175;48.154;11.534;2022-09-27T09:15:48;12.50;99.90
15967;DHT22;15175;48.154;11.534;2022-09-27T09:18:44;12.50;99.90
15967;DHT22;15175;48.154;11.534;2022-09-27T09:21:41;12.50;99.90
15967;DHT22;15175;48.154;11.534;2022-09-27T09:24:21;12.60;99.90
15967;DHT22;15175;48.154;11.534;2022-09-27T09:26:56;12.80;99.90
15967;DHT22;15175;48.154;11.534;2022-09-27T09:29:44;12.90;99.90
15967;DHT22;15175;48.154;11.534;2022-09-27T09:32:22;13.10;99.90
15967;DHT22;15175;48.154;11.534;2022-09-27T09:34:58;13.10;99.90
15967;DHT22;15175;48.154;11.534;2022-09-27T09:37:34;13.10;99.90
15967;DHT22;15175;48.154;11.534;2022-09-27T09:40:12;13.10;99.90
15967;DHT22;15175;48.154;11.534;2022-09-27T09:42:45;13.10;99.90
15967;DHT22;15175;48.154;11.534;2022-09-27T09:45:18;13.00;99.90
15967;DHT22;15175;48.154;11.534;2022-09-27T09:47:50;13.00;99.90
15967;DHT22;15175;48.154;11.534;2022-09-27T09:50:23;12.90;99.90
15967;DHT22;15175;48.154;11.534;2022-09-27T09:52:56;12.90;99.90
15967;DHT22;15175;48.154;11.534;2022-09-27T09:55:27;12.90;99.90
15967;DHT22;15175;48.154;11.534;2022-09-27T09:58:01;12.90;99.90
15967;DHT22;15175;48.154;11.534;2022-09-27T10:00:41;12.80;99.90
15967;DHT22;15175;48.154;11.534;2022-09-27T10:03:09;12.70;99.90
15967;DHT22;15175;48.154;11.534;2022-09-27T10:05:36;12.70;99.90
15967;DHT22;15175;48.154;11.534;2022-09-27T10:08:14;12.70;99.90
15967;DHT22;15175;48.154;11.534;2022-09-27T10:10:45;12.70;99.90
15967;DHT22;15175;48.154;11.534;2022-09-27T10:13:39;12.70;99.90
15967;DHT22;15175;48.154;11.534;2022-09-27T10:16:09;12.60;99.90
15967;DHT22;15175;48.154;11.534;2022-09-27T10:18:39;12.60;99.90
15967;DHT22;15175;48.154;11.534;2022-09-27T10:21:12;12.60;99.90
15967;DHT22;15175;48.154;11.534;2022-09-27T10:24:06;12.60;99.90
15967;DHT22;15175;48.154;11.534;2022-09-27T10:26:56;12.60;99.90
15967;DHT22;15175;48.154;11.534;2022-09-27T10:29:30;12.60;99.90
15967;DHT22;15175;48.154;11.534;2022-09-27T10:31:58;12.60;99.90
15967;DHT22;15175;48.154;11.534;2022-09-27T10:34:36;12.50;99.90
15967;DHT22;15175;48.154;11.534;2022-09-27T10:37:14;12.50;99.90
15967;DHT22;15175;48.154;11.534;2022-09-27T10:40:26;12.40;99.90
15967;DHT22;15175;48.154;11.534;2022-09-27T10:42:56;12.40;99.90
15967;DHT22;15175;48.154;11.534;2022-09-27T10:45:36;12.30;99.90
15967;DHT22;15175;48.154;11.534;2022-09-27T10:48:19;12.30;99.90
15967;DHT22;15175;48.154;11.534;2022-09-27T10:50:59;12.20;99.90
15967;DHT22;15175;48.154;11.534;2022-09-27T10:53:46;12.10;99.90
15967;DHT22;15175;48.154;11.534;2022-09-27T10:56:30;12.00;99.90
15967;DHT22;15175;48.154;11.534;2022-09-27T10:59:00;12.00;99.90
15967;DHT22;15175;48.154;11.534;2022-09-27T11:01:41;12.00;99.90
15967;DHT22;15175;48.154;11.534;2022-09-27T11:04:34;12.10;99.90
15967;DHT22;15175;48.154;11.534;2022-09-27T11:07:13;12.30;99.90
15967;DHT22;15175;48.154;11.534;2022-09-27T11:09:51;12.50;99.90
15967;DHT22;15175;48.154;11.534;2022-09-27T11:12:20;12.60;99.90
15967;DHT22;15175;48.154;11.534;2022-09-27T11:14:54;12.80;99.90
15967;DHT22;15175;48.154;11.534;2022-09-27T11:17:31;12.90;99.90
15967;DHT22;15175;48.154;11.534;2022-09-27T11:20:12;13.00;99.90
15967;DHT22;15175;48.154;11.534;2022-09-27T11:25:59;13.00;99.90
15967;DHT22;15175;48.154;11.534;2022-09-27T11:28:38;13.00;99.90
15967;DHT22;15175;48.154;11.534;2022-09-27T11:31:22;13.00;99.90
15967;DHT22;15175;48.154;11.534;2022-09-27T11:34:15;12.90;99.90
15967;DHT22;15175;48.154;11.534;2022-09-27T11:36:56;12.80;99.90
15967;DHT22;15175;48.154;11.534;2022-09-27T11:39:39;12.70;99.90
15967;DHT22;15175;48.154;11.534;2022-09-27T11:42:24;12.60;99.90
15967;DHT22;15175;48.154;11.534;2022-09-27T11:45:09;12.50;99.90
15967;DHT22;15175;48.154;11.534;2022-09-27T11:47:49;12.50;99.90
15967;DHT22;15175;48.154;11.534;2022-09-27T11:50:48;12.40;99.90
15967;DHT22;15175;48.154;11.534;2022-09-27T11:53:33;12.30;99.90
15967;DHT22;15175;48.154;11.534;2022-09-27T11:56:10;12.30;99.90
15967;DHT22;15175;48.154;11.534;2022-09-27T11:58:54;12.40;99.90
15967;DHT22;15175;48.154;11.534;2022-09-27T12:01:32;12.40;99.90
15967;DHT22;15175;48.154;11.534;2022-09-27T12:04:32;12.40;99.90
15967;DHT22;15175;48.154;11.534;2022-09-27T12:07:13;12.40;99.90
15967;DHT22;15175;48.154;11.534;2022-09-27T12:09:44;12.40;99.90
15967;DHT22;15175;48.154;11.534;2022-09-27T12:12:17;12.40;99.90
15967;DHT22;15175;48.154;11.534;2022-09-27T12:14:50;12.40;99.90
15967;DHT22;15175;48.154;11.534;2022-09-27T12:17:24;12.30;99.90
15967;DHT22;15175;48.154;11.534;2022-09-27T12:19:55;12.20;99.90
15967;DHT22;15175;48.154;11.534;2022-09-27T12:22:41;12.10;99.90
15967;DHT22;15175;48.154;11.534;2022-09-27T12:25:12;11.90;99.90
15967;DHT22;15175;48.154;11.534;2022-09-27T12:27:46;11.80;99.90
15967;DHT22;15175;48.154;11.534;2022-09-27T12:30:19;11.80;99.90
15967;DHT22;15175;48.154;11.534;2022-09-27T12:32:53;11.80;99.90
15967;DHT22;15175;48.154;11.534;2022-09-27T12:35:24;11.80;99.90
15967;DHT22;15175;48.154;11.534;2022-09-27T12:37:57;11.90;99.90
15967;DHT22;15175;48.154;11.534;2022-09-27T12:40:28;12.00;99.90
15967;DHT22;15175;48.154;11.534;2022-09-27T12:43:03;12.20;99.90
15967;DHT22;15175;48.154;11.534;2022-09-27T12:46:00;12.30;99.90
15967;DHT22;15175;48.154;11.534;2022-09-27T12:48:34;12.50;99.90
15967;DHT22;15175;48.154;11.534;2022-09-27T12:51:07;12.50;99.90
15967;DHT22;15175;48.154;11.534;2022-09-27T12:53:52;12.50;99.90
15967;DHT22;15175;48.154;11.534;2022-09-27T12:56:40;12.50;99.90
15967;DHT22;15175;48.154;11.534;2022-09-27T12:59:20;12.60;99.90
15967;DHT22;15175;48.154;11.534;2022-09-27T13:05:04;12.60;99.90
15967;DHT22;15175;48.154;11.534;2022-09-27T13:07:45;12.60;99.90
15967;DHT22;15175;48.154;11.534;2022-09-27T13:10:40;12.60;99.90
15967;DHT22;15175;48.154;11.534;2022-09-27T13:13:23;12.60;99.90
15967;DHT22;15175;48.154;11.534;2022-09-27T13:15:56;12.70;99.90
15967;DHT22;15175;48.154;11.534;2022-09-27T13:18:30;12.80;99.90
15967;DHT22;15175;48.154;11.534;2022-09-27T13:21:00;12.90;99.90
15967;DHT22;15175;48.154;11.534;2022-09-27T13:23:51;13.00;99.90
15967;DHT22;15175;48.154;11.534;2022-09-27T13:26:48;13.30;99.90
15967;DHT22;15175;48.154;11.534;2022-09-27T13:29:25;13.30;99.90
15967;DHT22;15175;48.154;11.534;2022-09-27T13:32:17;13.30;99.90
15967;DHT22;15175;48.154;11.534;2022-09-27T13:35:18;13.30;99.90
15967;DHT22;15175;48.154;11.534;2022-09-27T13:37:54;13.20;99.90
15967;DHT22;15175;48.154;11.534;2022-09-27T13:40:39;13.20;99.90
15967;DHT22;15175;48.154;11.534;2022-09-27T13:43:49;13.20;99.90
15967;DHT22;15175;48.154;11.534;2022-09-27T13:46:47;13.20;99.90
15967;DHT22;15175;48.154;11.534;2022-09-27T13:49:20;13.20;99.90
15967;DHT22;15175;48.154;11.534;2022-09-27T13:52:19;13.10;99.90
15967;DHT22;15175;48.154;11.534;2022-09-27T13:55:00;13.10;99.90
15967;DHT22;15175;48.154;11.534;2022-09-27T13:57:50;13.10;99.90
15967;DHT22;15175;48.154;11.534;2022-09-27T14:00:24;13.00;99.90
15967;DHT22;15175;48.154;11.534;2022-09-27T14:03:00;13.00;99.90
15967;DHT22;15175;48.154;11.534;2022-09-27T14:05:37;13.00;99.90
15967;DHT22;15175;48.154;11.534;2022-09-27T14:08:13;12.90;99.90
15967;DHT22;15175;48.154;11.534;2022-09-27T14:10:46;12.90;99.90
15967;DHT22;15175;48.154;11.534;2022-09-27T14:13:17;12.80;99.90
15967;DHT22;15175;48.154;11.534;2022-09-27T14:15:58;12.80;99.90
15967;DHT22;15175;48.154;11.534;2022-09-27T14:18:27;12.80;99.90
15967;DHT22;15175;48.154;11.534;2022-09-27T14:21:10;12.80;99.90
15967;DHT22;15175;48.154;11.534;2022-09-27T14:24:23;12.70;99.90
15967;DHT22;15175;48.154;11.534;2022-09-27T14:27:14;12.70;99.90
15967;DHT22;15175;48.154;11.534;2022-09-27T14:29:45;12.70;99.90
15967;DHT22;15175;48.154;11.534;2022-09-27T14:32:20;12.70;99.90
15967;DHT22;15175;48.154;11.534;2022-09-27T14:35:04;12.70;99.90
15967;DHT22;15175;48.154;11.534;2022-09-27T14:37:32;12.70;99.90
15967;DHT22;15175;48.154;11.534;2022-09-27T14:40:19;12.60;99.90
15967;DHT22;15175;48.154;11.534;2022-09-27T14:42:46;12.50;99.90
15967;DHT22;15175;48.154;11.534;2022-09-27T14:45:19;12.50;99.90
15967;DHT22;15175;48.154;11.534;2022-09-27T14:47:50;12.40;99.90
15967;DHT22;15175;48.154;11.534;2022-09-27T14:50:19;12.50;99.90
15967;DHT22;15175;48.154;11.534;2022-09-27T14:52:47;12.50;99.90
15967;DHT22;15175;48.154;11.534;2022-09-27T14:55:18;12.50;99.90
15967;DHT22;15175;48.154;11.534;2022-09-27T14:57:48;12.50;99.90
15967;DHT22;15175;48.154;11.534;2022-09-27T15:00:17;12.40;99.90
15967;DHT22;15175;48.154;11.534;2022-09-27T15:02:47;12.40;99.90
15967;DHT22;15175;48.154;11.534;2022-09-27T15:05:19;12.40;99.90
15967;DHT22;15175;48.154;11.534;2022-09-27T15:07:46;12.40;99.90
15967;DHT22;15175;48.154;11.534;2022-09-27T15:10:15;12.40;99.90
15967;DHT22;15175;48.154;11.534;2022-09-27T15:12:44;12.30;99.90
15967;DHT22;15175;48.154;11.534;2022-09-27T15:15:17;12.30;99.90
15967;DHT22;15175;48.154;11.534;2022-09-27T15:17:45;12.30;99.90
15967;DHT22;15175;48.154;11.534;2022-09-27T15:20:26;12.30;99.90
15967;DHT22;15175;48.154;11.534;2022-09-27T15:22:54;12.30;99.90
15967;DHT22;15175;48.154;11.534;2022-09-27T15:25:25;12.20;99.90
15967;DHT22;15175;48.154;11.534;2022-09-27T15:27:58;12.20;99.90
15967;DHT22;15175;48.154;11.534;2022-09-27T15:30:27;12.30;99.90
15967;DHT22;15175;48.154;11.534;2022-09-27T15:32:55;12.20;99.90
15967;DHT22;15175;48.154;11.534;2022-09-27T15:35:27;12.20;99.90
15967;DHT22;15175;48.154;11.534;2022-09-27T15:38:23;12.20;99.90
15967;DHT22;15175;48.154;11.534;2022-09-27T15:41:10;12.20;99.90
15967;DHT22;15175;48.154;11.534;2022-09-27T15:43:42;12.20;99.90
15967;DHT22;15175;48.154;11.534;2022-09-27T15:46:34;12.20;99.90
15967;DHT22;15175;48.154;11.534;2022-09-27T15:49:21;12.20;99.90
15967;DHT22;15175;48.154;11.534;2022-09-27T15:51:54;12.30;99.90
15967;DHT22;15175;48.154;11.534;2022-09-27T15:54:23;12.30;99.90
15967;DHT22;15175;48.154;11.534;2022-09-27T15:56:53;12.30;99.90
15967;DHT22;15175;48.154;11.534;2022-09-27T15:59:23;12.30;99.90
15967;DHT22;15175;48.154;11.534;2022-09-27T16:01:54;12.30;99.90
15967;DHT22;15175;48.154;11.534;2022-09-27T16:04:22;12.30;99.90
15967;DHT22;15175;48.154;11.534;2022-09-27T16:06:49;12.30;99.90
15967;DHT22;15175;48.154;11.534;2022-09-27T16:09:19;12.30;99.90
15967;DHT22;15175;48.154;11.534;2022-09-27T16:11:47;12.30;99.90
15967;DHT22;15175;48.154;11.534;2022-09-27T16:14:15;12.20;99.90
15967;DHT22;15175;48.154;11.534;2022-09-27T16:16:45;12.10;99.90